Time;durP1;ratioP1;P1;durP2;ratioP2;P2;SDS_P1;SDS_P2;PMS_P1;PMS_P2;Temp;Humidity;BMP_temperature;BMP_pressure;BME280_temperature;BME280_humidity;BME280_pressure;Samples;Min_cycle;Max_cycle;Signal;HPM_P1;HPM_P2
2022/01/03 00:00:33;;;;;;;6.10;3.90;;;13.00;99.90;;;;;;5071752;28;20746;-65
2022/01/03 00:03:01;;;;;;;4.67;3.60;;;12.90;99.90;;;;;;5069700;28;21018;-65
2022/01/03 00:05:27;;;;;;;7.40;3.97;;;12.90;99.90;;;;;;5083631;28;20865;-65
2022/01/03 00:07:53;;;;;;;7.50;4.40;;;12.90;99.90;;;;;;5061951;28;20438;-65
2022/01/03 00:10:19;;;;;;;4.97;3.90;;;12.90;99.90;;;;;;5069123;28;20181;-65
2022/01/03 00:12:45;;;;;;;5.27;3.90;;;12.80;99.90;;;;;;5072537;28;20996;-65
2022/01/03 00:15:14;;;;;;;5.37;3.63;;;12.90;99.90;;;;;;5074869;28;20876;-65
2022/01/03 00:17:40;;;;;;;6.17;4.20;;;12.80;99.90;;;;;;5074247;28;20408;-72
2022/01/03 00:20:07;;;;;;;4.47;3.70;;;12.80;99.90;;;;;;5073982;28;20537;-65
2022/01/03 00:22:57;;;;;;;4.80;3.70;;;12.70;99.90;;;;;;5074440;28;20515;-65
2022/01/03 00:25:25;;;;;;;5.97;4.73;;;12.80;99.90;;;;;;5073870;28;20546;-65
2022/01/03 00:28:20;;;;;;;5.37;4.33;;;12.70;99.90;;;;;;5067989;28;20858;-66
2022/01/03 00:30:49;;;;;;;5.07;4.50;;;12.70;99.90;;;;;;5036853;28;20433;-65
2022/01/03 00:33:18;;;;;;;7.10;4.53;;;12.70;99.90;;;;;;5059241;28;20420;-64
2022/01/03 00:35:44;;;;;;;5.00;4.50;;;12.70;99.90;;;;;;5073848;28;20420;-65
2022/01/03 00:38:12;;;;;;;12.17;5.10;;;12.70;99.90;;;;;;5072719;28;20498;-65
2022/01/03 00:40:39;;;;;;;6.70;4.30;;;12.70;99.90;;;;;;5073158;28;20171;-65
2022/01/03 00:43:05;;;;;;;9.33;4.47;;;12.80;99.90;;;;;;5072443;28;20917;-65
2022/01/03 00:45:32;;;;;;;9.80;4.30;;;12.70;99.90;;;;;;5071791;28;20540;-67
2022/01/03 00:47:58;;;;;;;6.67;4.70;;;12.70;99.90;;;;;;5070596;28;20410;-67
2022/01/03 00:50:24;;;;;;;6.53;4.83;;;12.70;99.90;;;;;;5072250;28;20911;-65
2022/01/03 00:52:51;;;;;;;8.77;4.67;;;12.70;99.90;;;;;;5072417;28;20191;-65
2022/01/03 00:55:17;;;;;;;9.87;4.67;;;12.70;99.90;;;;;;5072875;28;20454;-65
2022/01/03 00:58:07;;;;;;;8.33;4.63;;;12.70;99.90;;;;;;5071959;28;20932;-68
2022/01/03 01:00:37;;;;;;;10.03;4.23;;;12.60;99.90;;;;;;5070844;28;20412;-66
2022/01/03 01:03:04;;;;;;;9.83;4.47;;;12.50;99.90;;;;;;5072134;28;21013;-67
2022/01/03 01:05:30;;;;;;;8.60;3.80;;;12.40;99.90;;;;;;5072447;28;20447;-66
2022/01/03 01:07:57;;;;;;;8.60;3.53;;;12.40;99.90;;;;;;5071937;28;20418;-66
2022/01/03 01:10:28;;;;;;;7.50;3.93;;;12.40;99.90;;;;;;5072568;28;20415;-66
2022/01/03 01:12:55;;;;;;;10.33;3.87;;;12.40;99.90;;;;;;5071616;28;20419;-66
2022/01/03 01:15:22;;;;;;;6.90;3.63;;;12.30;99.90;;;;;;5071084;28;20986;-66
2022/01/03 01:17:48;;;;;;;7.50;3.37;;;12.30;99.90;;;;;;5071374;28;20426;-66
2022/01/03 01:20:15;;;;;;;9.97;3.73;;;12.20;99.90;;;;;;5070462;28;20798;-68
2022/01/03 01:22:45;;;;;;;8.17;3.87;;;12.30;99.90;;;;;;5071419;28;20672;-77
2022/01/03 01:27:47;;;;;;;10.67;3.27;;;12.40;99.90;;;;;;5072181;28;20477;-66
2022/01/03 01:30:20;;;;;;;5.50;3.10;;;12.30;99.90;;;;;;5072171;28;20172;-67
2022/01/03 01:33:07;;;;;;;7.57;3.30;;;12.30;99.90;;;;;;5071434;28;20418;-66
2022/01/03 01:35:53;;;;;;;10.70;5.13;;;12.30;99.90;;;;;;5071549;28;20797;-69
2022/01/03 01:38:21;;;;;;;7.07;3.67;;;12.30;99.90;;;;;;5069426;28;20897;-66
2022/01/03 01:40:53;;;;;;;8.27;3.57;;;12.30;99.90;;;;;;5070142;28;20470;-66
2022/01/03 01:43:32;;;;;;;4.53;2.87;;;12.30;99.90;;;;;;5069576;28;20502;-66
2022/01/03 01:45:59;;;;;;;9.17;3.10;;;12.30;99.90;;;;;;5069714;28;20865;-66
2022/01/03 01:48:26;;;;;;;10.50;3.67;;;12.30;99.90;;;;;;5072087;28;20765;-67
2022/01/03 01:50:55;;;;;;;6.20;3.40;;;12.30;99.90;;;;;;5070804;28;20934;-68
2022/01/03 01:53:24;;;;;;;5.53;3.03;;;12.30;99.90;;;;;;5071894;28;20423;-66
2022/01/03 01:55:52;;;;;;;8.43;3.13;;;12.30;99.90;;;;;;5069439;28;20423;-66
2022/01/03 01:58:42;;;;;;;7.33;3.33;;;12.20;99.90;;;;;;5068091;28;20412;-66
2022/01/03 02:01:12;;;;;;;7.50;3.90;;;12.20;99.90;;;;;;5070826;28;20422;-66
2022/01/03 02:03:57;;;;;;;4.63;3.57;;;12.10;99.90;;;;;;5069111;28;20435;-66
2022/01/03 02:06:29;;;;;;;7.27;3.63;;;12.20;99.90;;;;;;5068849;28;20475;-69
2022/01/03 02:09:00;;;;;;;8.00;3.13;;;12.20;99.90;;;;;;5068347;28;20404;-66
2022/01/03 02:11:53;;;;;;;7.67;3.10;;;12.30;99.90;;;;;;5068839;28;20454;-66
2022/01/03 02:14:23;;;;;;;7.90;3.20;;;12.40;99.90;;;;;;5069594;28;20420;-66
2022/01/03 02:16:50;;;;;;;7.80;3.67;;;12.40;99.90;;;;;;5070510;28;20407;-66
2022/01/03 02:19:16;;;;;;;9.10;3.40;;;12.30;99.90;;;;;;5071126;28;20414;-68
2022/01/03 02:21:42;;;;;;;8.50;3.40;;;12.30;99.90;;;;;;5070481;28;20429;-78
2022/01/03 02:24:08;;;;;;;15.37;3.63;;;12.30;99.90;;;;;;5069525;28;20403;-66
2022/01/03 02:26:34;;;;;;;8.57;3.33;;;12.40;99.90;;;;;;5071071;28;20447;-66
2022/01/03 02:29:00;;;;;;;7.57;4.10;;;12.40;99.90;;;;;;5070348;28;20436;-66
2022/01/03 02:31:26;;;;;;;9.93;4.00;;;12.40;99.90;;;;;;5069894;28;20807;-66
2022/01/03 02:33:52;;;;;;;7.00;3.07;;;12.40;99.90;;;;;;5069780;28;20178;-66
2022/01/03 02:36:19;;;;;;;7.20;3.47;;;12.40;99.90;;;;;;5068664;28;20947;-68
2022/01/03 02:38:45;;;;;;;6.20;3.13;;;12.30;99.90;;;;;;5066933;28;20413;-68
2022/01/03 02:41:11;;;;;;;8.10;4.20;;;12.30;99.90;;;;;;5069752;28;20919;-66
2022/01/03 02:43:37;;;;;;;11.13;2.90;;;12.50;99.90;;;;;;5071241;28;21072;-66
2022/01/03 02:46:03;;;;;;;13.67;3.17;;;12.40;99.90;;;;;;5068588;28;20467;-66
2022/01/03 02:48:30;;;;;;;6.80;3.10;;;12.40;99.90;;;;;;5069610;28;20432;-66
2022/01/03 02:50:56;;;;;;;7.33;3.00;;;12.50;99.90;;;;;;5070211;28;20407;-66
2022/01/03 02:53:22;;;;;;;11.60;3.10;;;12.40;99.90;;;;;;5070422;28;20415;-67
2022/01/03 02:55:48;;;;;;;9.47;3.07;;;12.40;99.90;;;;;;5068555;28;20513;-66
2022/01/03 02:58:14;;;;;;;7.10;3.10;;;12.40;99.90;;;;;;5068342;28;20971;-66
2022/01/03 03:00:52;;;;;;;5.27;3.10;;;12.40;99.90;;;;;;5069503;28;20433;-75
2022/01/03 03:03:20;;;;;;;9.37;3.37;;;12.40;99.90;;;;;;5070868;28;20406;-68
2022/01/03 03:05:46;;;;;;;5.27;3.17;;;12.40;99.90;;;;;;5065857;28;20499;-66
2022/01/03 03:08:13;;;;;;;10.47;4.10;;;12.40;99.90;;;;;;5068990;28;20813;-66
2022/01/03 03:10:39;;;;;;;9.23;3.33;;;12.40;99.90;;;;;;5070603;28;20450;-67
2022/01/03 03:13:05;;;;;;;8.30;3.63;;;12.40;99.90;;;;;;5069923;28;20453;-66
2022/01/03 03:15:32;;;;;;;8.93;3.03;;;12.40;99.90;;;;;;5070340;28;20498;-66
2022/01/03 03:17:58;;;;;;;5.50;2.93;;;12.40;99.90;;;;;;5069530;28;20821;-68
2022/01/03 03:20:29;;;;;;;8.80;3.17;;;12.30;99.90;;;;;;5070378;28;20887;-66
2022/01/03 03:22:57;;;;;;;5.60;3.30;;;12.40;99.90;;;;;;5070965;28;20425;-66
2022/01/03 03:25:27;;;;;;;7.00;3.10;;;12.40;99.90;;;;;;5073817;28;20490;-66
2022/01/03 03:28:13;;;;;;;8.60;4.00;;;12.40;99.90;;;;;;5073687;28;20410;-65
2022/01/03 03:30:41;;;;;;;6.37;2.97;;;12.40;99.90;;;;;;5073172;28;20870;-65
2022/01/03 03:33:16;;;;;;;8.00;3.43;;;12.30;99.90;;;;;;5065114;28;20964;-65
2022/01/03 03:35:42;;;;;;;6.47;3.00;;;12.20;99.90;;;;;;5054242;28;20770;-76
2022/01/03 03:38:09;;;;;;;6.07;3.57;;;12.30;99.90;;;;;;5055423;28;20397;-65
2022/01/03 03:40:35;;;;;;;5.43;3.17;;;12.30;99.90;;;;;;5055732;28;20411;-65
2022/01/03 03:43:01;;;;;;;3.57;2.80;;;12.30;99.90;;;;;;5054595;28;20595;-65
2022/01/03 03:45:26;;;;;;;6.00;3.10;;;12.30;99.90;;;;;;5054039;28;20982;-65
2022/01/03 03:47:52;;;;;;;10.87;3.30;;;12.30;99.90;;;;;;5054590;28;20182;-65
2022/01/03 03:50:20;;;;;;;4.73;2.20;;;12.40;99.90;;;;;;5054300;28;20186;-65
2022/01/03 03:52:46;;;;;;;9.93;3.60;;;12.40;99.90;;;;;;5054379;28;20996;-66
2022/01/03 03:55:12;;;;;;;7.13;4.67;;;12.40;99.90;;;;;;5037419;28;20423;-65
2022/01/03 03:57:38;;;;;;;8.73;3.00;;;12.40;99.90;;;;;;5055319;28;20409;-65
2022/01/03 04:00:10;;;;;;;7.37;3.30;;;12.30;99.90;;;;;;5054242;28;20976;-65
2022/01/03 04:02:35;;;;;;;5.03;2.67;;;12.30;99.90;;;;;;5072290;28;20507;-65
2022/01/03 04:05:02;;;;;;;5.37;3.20;;;12.30;99.90;;;;;;5073971;28;21061;-65
2022/01/03 04:07:28;;;;;;;6.00;3.27;;;12.30;99.90;;;;;;5075222;28;20530;-65
2022/01/03 04:09:54;;;;;;;8.83;3.03;;;12.40;99.90;;;;;;5074218;28;20408;-65
2022/01/03 04:12:19;;;;;;;9.57;3.03;;;12.40;99.90;;;;;;5075135;28;20411;-65
2022/01/03 04:14:45;;;;;;;4.50;3.27;;;12.40;99.90;;;;;;5074477;28;20658;-76
2022/01/03 04:17:12;;;;;;;7.57;4.10;;;12.40;99.90;;;;;;5073584;28;20247;-65
2022/01/03 04:19:38;;;;;;;4.30;2.70;;;12.50;99.90;;;;;;5074711;28;20408;-65
2022/01/03 04:22:04;;;;;;;6.90;3.50;;;12.30;99.90;;;;;;5072672;28;20589;-65
2022/01/03 04:24:30;;;;;;;7.77;3.97;;;12.30;99.90;;;;;;5074802;28;20411;-65
2022/01/03 04:26:55;;;;;;;7.47;3.00;;;12.30;99.90;;;;;;5073921;28;20684;-65
2022/01/03 04:29:21;;;;;;;9.80;3.27;;;12.20;99.90;;;;;;5072968;28;20192;-65
2022/01/03 04:31:47;;;;;;;7.57;3.47;;;12.30;99.90;;;;;;5073944;28;20660;-74
2022/01/03 04:34:13;;;;;;;10.00;4.00;;;12.40;99.90;;;;;;5072515;28;20177;-68
2022/01/03 04:36:39;;;;;;;5.87;3.80;;;12.50;99.90;;;;;;5074595;28;20249;-68
2022/01/03 04:39:05;;;;;;;6.93;6.20;;;12.50;99.90;;;;;;5073733;28;21045;-68
2022/01/03 04:41:31;;;;;;;6.50;3.50;;;12.60;99.90;;;;;;5074528;28;20754;-68
2022/01/03 04:43:57;;;;;;;8.43;3.63;;;12.70;99.90;;;;;;5073854;28;20514;-68
2022/01/03 04:46:23;;;;;;;6.60;3.17;;;12.60;99.90;;;;;;5073890;28;20560;-68
2022/01/03 04:48:49;;;;;;;9.90;5.20;;;12.70;99.90;;;;;;5073871;28;20178;-69
2022/01/03 04:51:15;;;;;;;9.57;2.70;;;12.80;99.90;;;;;;5074307;28;20169;-68
2022/01/03 04:53:41;;;;;;;5.37;3.13;;;13.00;99.90;;;;;;5073002;28;20178;-68
2022/01/03 04:56:12;;;;;;;7.00;3.80;;;13.00;99.90;;;;;;5073140;28;20509;-68
2022/01/03 04:58:39;;;;;;;9.07;5.00;;;13.10;99.90;;;;;;5057318;28;20439;-67
2022/01/03 05:01:04;;;;;;;8.33;4.50;;;13.10;99.90;;;;;;5035518;28;20635;-67
2022/01/03 05:03:31;;;;;;;7.67;3.97;;;13.10;99.90;;;;;;5054149;28;20407;-66
2022/01/03 05:05:57;;;;;;;5.73;4.57;;;13.00;99.90;;;;;;5051908;28;20817;-66
2022/01/03 05:08:23;;;;;;;6.43;2.90;;;12.90;99.90;;;;;;5052769;28;20817;-66
2022/01/03 05:10:49;;;;;;;6.40;2.30;;;12.80;99.90;;;;;;5051848;28;20449;-72
2022/01/03 05:13:15;;;;;;;9.10;2.60;;;12.80;99.90;;;;;;5053581;28;20448;-66
2022/01/03 05:15:40;;;;;;;9.80;3.00;;;12.70;99.90;;;;;;5053924;28;20364;-66
2022/01/03 05:18:06;;;;;;;7.43;4.20;;;12.70;99.90;;;;;;5053261;28;20256;-66
2022/01/03 05:20:32;;;;;;;8.20;3.30;;;12.50;99.90;;;;;;5073726;28;20174;-66
2022/01/03 05:22:57;;;;;;;9.77;3.30;;;12.40;99.90;;;;;;5071756;28;20173;-67
2022/01/03 05:25:23;;;;;;;7.13;3.67;;;12.40;99.90;;;;;;5072085;28;20571;-66
2022/01/03 05:27:49;;;;;;;8.90;2.80;;;12.40;99.90;;;;;;5073294;28;20173;-72
2022/01/03 05:30:15;;;;;;;8.27;2.80;;;12.30;99.90;;;;;;5072077;28;20209;-66
2022/01/03 05:32:41;;;;;;;6.83;2.93;;;12.30;99.90;;;;;;5055617;28;20209;-66
2022/01/03 05:35:07;;;;;;;7.57;2.90;;;12.30;99.90;;;;;;5072638;28;20438;-66
2022/01/03 05:37:33;;;;;;;7.90;3.23;;;12.20;99.90;;;;;;5072299;28;20180;-66
2022/01/03 05:39:59;;;;;;;8.67;2.30;;;12.30;99.90;;;;;;5072383;28;20770;-66
2022/01/03 05:42:24;;;;;;;5.63;2.43;;;12.20;99.90;;;;;;5073333;28;20256;-66
2022/01/03 05:44:51;;;;;;;10.30;2.53;;;12.20;99.90;;;;;;5072547;28;20181;-71
2022/01/03 05:47:17;;;;;;;7.53;2.60;;;12.30;99.90;;;;;;5062348;28;20232;-66
2022/01/03 05:49:43;;;;;;;8.10;2.57;;;12.30;99.90;;;;;;5053453;28;20427;-66
2022/01/03 05:52:09;;;;;;;4.13;2.50;;;12.30;99.90;;;;;;5051471;28;20408;-66
2022/01/03 05:54:34;;;;;;;7.10;2.70;;;12.30;99.90;;;;;;5054015;28;20174;-66
2022/01/03 05:57:00;;;;;;;9.70;2.83;;;12.30;99.90;;;;;;5050974;28;20687;-66
2022/01/03 05:59:26;;;;;;;6.83;3.30;;;12.30;99.90;;;;;;5053025;28;20173;-66
2022/01/03 06:01:54;;;;;;;5.30;2.70;;;12.40;99.90;;;;;;5052366;28;20749;-71
2022/01/03 06:06:58;;;;;;;8.50;2.70;;;12.30;99.90;;;;;;5052538;28;20943;-66
2022/01/03 06:09:24;;;;;;;10.10;3.40;;;12.30;99.90;;;;;;5053081;28;20170;-66
2022/01/03 06:11:51;;;;;;;9.27;4.93;;;12.20;99.90;;;;;;5051959;28;20735;-73
2022/01/03 06:14:18;;;;;;;9.00;3.30;;;12.30;99.90;;;;;;5052234;28;20909;-66
2022/01/03 06:16:45;;;;;;;3.87;2.40;;;12.20;99.90;;;;;;5069504;28;20426;-66
2022/01/03 06:19:12;;;;;;;6.70;3.00;;;12.30;99.90;;;;;;5071598;28;20410;-66
2022/01/03 06:21:40;;;;;;;4.73;3.10;;;12.30;99.90;;;;;;5070980;28;20423;-68
2022/01/03 06:24:11;;;;;;;8.17;3.60;;;12.30;99.90;;;;;;5070686;28;20423;-66
2022/01/03 06:26:38;;;;;;;11.37;3.70;;;12.30;99.90;;;;;;5068497;28;20543;-66
2022/01/03 06:29:04;;;;;;;9.00;3.33;;;12.40;99.90;;;;;;5050304;28;20495;-66
2022/01/03 06:31:31;;;;;;;5.33;2.93;;;12.40;99.90;;;;;;5051338;28;20407;-67
2022/01/03 06:33:57;;;;;;;6.63;3.03;;;12.40;99.90;;;;;;5050465;28;20413;-67
2022/01/03 06:36:23;;;;;;;7.00;3.17;;;12.40;99.90;;;;;;5057811;28;20420;-66
2022/01/03 06:38:49;;;;;;;6.80;3.87;;;12.30;99.90;;;;;;5066743;28;20419;-66
2022/01/03 06:41:15;;;;;;;8.30;4.20;;;12.30;99.90;;;;;;5064576;28;20180;-66
2022/01/03 06:43:40;;;;;;;4.97;2.40;;;12.30;99.90;;;;;;5054535;28;20174;-66
2022/01/03 06:46:06;;;;;;;6.83;2.63;;;12.20;99.90;;;;;;5057448;28;20525;-66
2022/01/03 06:48:32;;;;;;;5.70;2.20;;;12.30;99.90;;;;;;5069513;28;20423;-66
2022/01/03 06:50:58;;;;;;;9.80;4.00;;;12.20;99.90;;;;;;5067753;28;20283;-66
2022/01/03 06:53:24;;;;;;;8.50;3.03;;;12.20;99.90;;;;;;5086437;28;20497;-66
2022/01/03 06:55:49;;;;;;;8.93;3.00;;;12.20;99.90;;;;;;5091387;28;20208;-67
2022/01/03 06:58:15;;;;;;;10.17;3.83;;;12.20;99.90;;;;;;5067693;28;20350;-66
2022/01/03 07:00:41;;;;;;;5.20;2.60;;;12.20;99.90;;;;;;5064669;28;20178;-66
2022/01/03 07:03:06;;;;;;;6.93;3.90;;;12.30;99.90;;;;;;5051018;28;20261;-67
2022/01/03 07:05:32;;;;;;;6.47;3.13;;;12.30;99.90;;;;;;5055344;28;20203;-66
2022/01/03 07:07:59;;;;;;;10.17;3.70;;;12.30;99.90;;;;;;5069532;28;20430;-69
2022/01/03 07:10:25;;;;;;;11.80;3.90;;;12.50;99.90;;;;;;5071818;28;20415;-68
2022/01/03 07:12:53;;;;;;;11.20;4.23;;;12.90;99.90;;;;;;5072036;28;20411;-68
2022/01/03 07:20:53;;;;;;;6.90;2.93;;;13.60;99.90;;;;;;5040427;28;20441;-71
2022/01/03 07:23:19;;;;;;;5.67;3.03;;;13.90;99.90;;;;;;5069631;28;20911;-64
2022/01/03 07:25:51;;;;;;;6.63;3.17;;;14.00;99.90;;;;;;5071931;28;20949;-64
2022/01/03 07:28:18;;;;;;;4.80;2.80;;;14.00;99.20;;;;;;5059011;28;20416;-66
2022/01/03 07:30:44;;;;;;;8.47;3.30;;;13.90;99.00;;;;;;5062609;28;20457;-68
2022/01/03 07:33:11;;;;;;;7.63;3.70;;;13.70;99.20;;;;;;5055911;28;20424;-68
2022/01/03 07:35:37;;;;;;;7.47;3.40;;;13.70;99.70;;;;;;5071509;28;20418;-68
2022/01/03 07:38:04;;;;;;;9.53;5.20;;;13.50;99.90;;;;;;5070144;28;20437;-68
2022/01/03 07:40:30;;;;;;;7.63;3.00;;;13.30;99.90;;;;;;5067848;28;20431;-68
2022/01/03 07:42:57;;;;;;;6.67;3.20;;;13.10;99.90;;;;;;5070923;28;20494;-74
2022/01/03 07:45:23;;;;;;;7.27;3.07;;;13.00;99.90;;;;;;5065211;28;20489;-68
2022/01/03 07:47:49;;;;;;;11.43;4.70;;;12.90;99.90;;;;;;5051509;28;20419;-67
2022/01/03 07:50:15;;;;;;;7.50;3.60;;;12.80;99.90;;;;;;5050856;28;20441;-68
2022/01/03 07:52:41;;;;;;;10.13;3.03;;;12.80;99.90;;;;;;5051347;28;20504;-68
2022/01/03 07:55:09;;;;;;;10.37;3.90;;;12.70;99.90;;;;;;5050178;28;20429;-68
2022/01/03 07:57:35;;;;;;;8.70;4.47;;;12.80;99.90;;;;;;5057382;28;20426;-68
2022/01/03 08:00:02;;;;;;;17.57;10.53;;;12.70;99.90;;;;;;5069420;28;20848;-71
2022/01/03 08:02:29;;;;;;;12.67;8.00;;;13.20;99.90;;;;;;5071638;28;20314;-71
2022/01/03 08:04:55;;;;;;;10.80;6.33;;;14.10;99.90;;;;;;5071726;28;20418;-70
2022/01/03 08:07:20;;;;;;;8.00;5.87;;;14.80;99.90;;;;;;5071223;28;20426;-71
2022/01/03 08:09:46;;;;;;;8.37;3.90;;;15.50;99.90;;;;;;5072868;28;20418;-67
2022/01/03 08:12:12;;;;;;;8.00;4.03;;;16.00;99.90;;;;;;5071829;28;20193;-67
2022/01/03 08:14:38;;;;;;;5.50;4.23;;;16.00;95.20;;;;;;5063439;28;20190;-67
2022/01/03 08:17:05;;;;;;;10.07;4.27;;;15.60;94.60;;;;;;5072566;28;20422;-68
2022/01/03 08:19:31;;;;;;;10.80;3.40;;;15.20;95.30;;;;;;5075247;28;20168;-68
2022/01/03 08:21:57;;;;;;;5.70;3.60;;;14.80;95.80;;;;;;5053372;28;20421;-70
2022/01/03 08:24:23;;;;;;;5.07;3.10;;;14.40;96.80;;;;;;5058557;28;20779;-68
2022/01/03 08:26:49;;;;;;;10.80;3.77;;;14.20;97.60;;;;;;5072637;28;20204;-68
2022/01/03 08:29:15;;;;;;;6.50;3.70;;;13.90;98.30;;;;;;5055299;28;20263;-68
2022/01/03 08:31:41;;;;;;;11.43;4.83;;;13.80;98.80;;;;;;5067655;28;20454;-68
2022/01/03 08:34:07;;;;;;;5.23;3.60;;;13.60;99.10;;;;;;5073419;28;20499;-67
2022/01/03 08:36:33;;;;;;;5.40;3.30;;;13.50;99.90;;;;;;5069843;28;20432;-67
2022/01/03 08:38:58;;;;;;;9.67;3.57;;;13.30;99.90;;;;;;5071459;28;20211;-73
2022/01/03 08:41:24;;;;;;;5.60;2.93;;;13.20;99.90;;;;;;5071317;28;20529;-67
2022/01/03 08:43:51;;;;;;;6.80;4.10;;;13.10;99.90;;;;;;5071626;28;20842;-67
2022/01/03 08:46:17;;;;;;;4.63;3.40;;;13.00;99.90;;;;;;5072805;28;20251;-68
2022/01/03 08:48:43;;;;;;;6.27;3.70;;;12.90;99.90;;;;;;5074380;28;20449;-67
2022/01/03 08:51:09;;;;;;;6.50;2.90;;;12.90;99.90;;;;;;5072359;28;20535;-68
2022/01/03 08:53:35;;;;;;;6.83;3.80;;;12.90;99.90;;;;;;5074488;28;20263;-67
2022/01/03 08:56:01;;;;;;;6.90;4.87;;;12.80;99.90;;;;;;5073639;28;20186;-73
2022/01/03 08:58:27;;;;;;;7.17;3.80;;;12.80;99.90;;;;;;5069199;28;20499;-67
2022/01/03 09:00:53;;;;;;;9.27;4.53;;;12.70;99.90;;;;;;5073815;28;20179;-67
2022/01/03 09:03:19;;;;;;;6.77;4.50;;;12.70;99.90;;;;;;5062158;28;20448;-67
2022/01/03 09:05:45;;;;;;;5.10;4.60;;;12.70;99.90;;;;;;5053912;28;20289;-68
2022/01/03 09:08:12;;;;;;;9.73;7.30;;;12.70;99.90;;;;;;5067469;28;20441;-68
2022/01/03 09:10:39;;;;;;;9.10;3.50;;;12.80;99.90;;;;;;5074119;28;20417;-67
2022/01/03 09:13:05;;;;;;;13.97;6.00;;;12.80;99.90;;;;;;5078081;28;20429;-67
2022/01/03 09:15:31;;;;;;;11.97;4.60;;;12.90;99.90;;;;;;5069527;28;20434;-67
2022/01/03 09:17:56;;;;;;;11.50;6.80;;;12.80;99.90;;;;;;5073786;28;20455;-68
2022/01/03 09:20:22;;;;;;;6.17;5.67;;;12.80;99.90;;;;;;5072768;28;20771;-68
2022/01/03 09:22:52;;;;;;;8.13;4.40;;;12.90;99.90;;;;;;5072409;28;20183;-68
2022/01/03 09:30:34;;;;;;;5.17;4.43;;;13.00;99.90;;;;;;5072480;28;20175;-68
2022/01/03 09:33:01;;;;;;;48.33;27.97;;;13.00;99.90;;;;;;5072528;28;20432;-77
2022/01/03 09:35:27;;;;;;;63.23;38.80;;;13.00;99.90;;;;;;5072706;28;20418;-69
2022/01/03 09:37:52;;;;;;;8.00;4.80;;;13.00;99.90;;;;;;5073154;28;20758;-67
2022/01/03 09:40:19;;;;;;;12.23;5.10;;;12.90;99.90;;;;;;5052634;28;20423;-67
2022/01/03 09:42:56;;;;;;;7.40;4.53;;;12.80;99.90;;;;;;5070788;28;20263;-68
2022/01/03 09:45:27;;;;;;;6.13;4.80;;;12.90;99.90;;;;;;5060971;28;20473;-67
2022/01/03 09:47:55;;;;;;;12.17;6.90;;;12.90;99.90;;;;;;5063866;28;20472;-67
2022/01/03 09:50:21;;;;;;;8.23;4.20;;;12.90;99.90;;;;;;5067993;28;20473;-67
2022/01/03 09:52:48;;;;;;;10.20;6.07;;;12.90;99.90;;;;;;5047720;28;20427;-67
2022/01/03 09:55:20;;;;;;;7.73;5.33;;;12.80;99.90;;;;;;5062091;28;20557;-67
2022/01/03 09:57:46;;;;;;;8.57;6.03;;;12.80;99.90;;;;;;5062153;28;20426;-66
2022/01/03 10:00:22;;;;;;;6.07;4.30;;;12.80;99.90;;;;;;5062076;28;20781;-67
2022/01/03 10:02:52;;;;;;;9.40;4.23;;;12.80;99.90;;;;;;5071783;28;20771;-67
2022/01/03 10:05:19;;;;;;;6.80;3.90;;;12.90;99.90;;;;;;5069866;28;20465;-67
2022/01/03 10:07:45;;;;;;;9.97;4.77;;;13.00;99.90;;;;;;5072428;28;20850;-67
2022/01/03 10:10:12;;;;;;;7.27;4.83;;;13.10;99.90;;;;;;5066785;28;20427;-68
2022/01/03 10:12:38;;;;;;;6.80;5.20;;;13.00;99.90;;;;;;5070606;28;20487;-69
2022/01/03 10:15:06;;;;;;;7.97;4.37;;;13.10;99.90;;;;;;5070364;28;20426;-73
2022/01/03 10:17:41;;;;;;;7.57;5.70;;;13.00;99.90;;;;;;5066054;28;20423;-66
2022/01/03 10:20:10;;;;;;;105.53;89.87;;;13.00;99.90;;;;;;5068986;28;20477;-70
2022/01/03 10:22:37;;;;;;;132.13;93.47;;;12.90;99.90;;;;;;5085165;28;20458;-67
2022/01/03 10:25:18;;;;;;;12.53;5.60;;;12.80;99.90;;;;;;5082245;28;20508;-73
2022/01/03 10:27:56;;;;;;;5.90;4.23;;;12.80;99.90;;;;;;5059111;28;20827;-67
2022/01/03 10:30:40;;;;;;;4.60;4.00;;;12.80;99.90;;;;;;5067797;28;20534;-68
2022/01/03 10:33:09;;;;;;;7.40;4.67;;;12.80;99.90;;;;;;5057825;28;20429;-70
2022/01/03 10:35:45;;;;;;;6.30;3.03;;;12.80;99.90;;;;;;5057479;28;20828;-67
2022/01/03 10:38:29;;;;;;;7.70;6.10;;;12.90;99.90;;;;;;5064989;28;20421;-67
2022/01/03 10:41:08;;;;;;;4.40;3.03;;;13.00;99.90;;;;;;5072612;28;20456;-68
2022/01/03 10:43:34;;;;;;;9.70;4.80;;;13.00;99.90;;;;;;5070680;28;20932;-67
2022/01/03 10:46:14;;;;;;;8.27;4.20;;;13.00;99.90;;;;;;5071768;28;20477;-66
2022/01/03 10:48:40;;;;;;;7.33;3.77;;;12.90;99.90;;;;;;5069089;28;20233;-67
2022/01/03 10:51:06;;;;;;;6.50;3.97;;;13.00;99.90;;;;;;5070847;28;20450;-73
2022/01/03 10:53:39;;;;;;;3.73;2.80;;;13.10;99.90;;;;;;5070784;28;20225;-66
2022/01/03 10:56:20;;;;;;;9.57;4.90;;;13.20;99.90;;;;;;5072014;28;20272;-73
2022/01/03 10:58:47;;;;;;;8.50;3.83;;;13.40;99.90;;;;;;5070326;28;20510;-69
2022/01/03 11:01:27;;;;;;;5.00;3.67;;;13.60;99.90;;;;;;5052399;28;20431;-69
2022/01/03 11:03:55;;;;;;;29.63;20.13;;;13.90;99.90;;;;;;5070523;28;20517;-71
2022/01/03 11:11:39;;;;;;;8.20;4.10;;;14.40;99.30;;;;;;5068906;28;20403;-69
2022/01/03 11:14:06;;;;;;;10.60;4.40;;;14.40;98.60;;;;;;5070380;28;20818;-74
2022/01/03 11:16:39;;;;;;;7.47;6.00;;;14.30;98.90;;;;;;5071233;28;20430;-73
2022/01/03 11:19:06;;;;;;;9.17;3.37;;;14.30;98.30;;;;;;5071502;28;20411;-75
2022/01/03 11:21:33;;;;;;;7.43;2.80;;;14.30;98.90;;;;;;5071163;28;20423;-68
2022/01/03 11:24:04;;;;;;;6.10;3.00;;;14.30;98.40;;;;;;5060576;28;20787;-72
2022/01/03 11:26:33;;;;;;;6.50;5.90;;;14.20;98.20;;;;;;5062726;28;20452;-70
2022/01/03 11:29:00;;;;;;;7.87;4.27;;;14.20;99.10;;;;;;5065367;28;20540;-70
2022/01/03 11:31:32;;;;;;;7.80;4.83;;;14.20;99.20;;;;;;5065485;28;20578;-71
2022/01/03 11:33:58;;;;;;;7.53;2.80;;;14.30;99.90;;;;;;5067914;28;20411;-71
2022/01/03 11:36:25;;;;;;;7.40;3.47;;;14.30;99.40;;;;;;5070078;28;20529;-71
2022/01/03 11:38:54;;;;;;;6.63;3.10;;;14.30;98.80;;;;;;5066519;28;20422;-70
2022/01/03 11:41:20;;;;;;;7.43;5.77;;;14.20;98.90;;;;;;5065324;28;21507;-74
2022/01/03 11:43:46;;;;;;;7.00;3.20;;;14.10;98.90;;;;;;5068231;28;20435;-71
2022/01/03 11:46:12;;;;;;;7.83;3.47;;;14.10;99.50;;;;;;5070503;28;20607;-69
2022/01/03 11:48:38;;;;;;;6.90;2.67;;;14.10;99.40;;;;;;5069310;28;20647;-72
2022/01/03 11:51:07;;;;;;;4.47;2.77;;;14.10;99.10;;;;;;5074057;28;20429;-70
2022/01/03 11:53:37;;;;;;;9.13;3.80;;;14.10;98.80;;;;;;5072007;28;20423;-70
2022/01/03 11:56:05;;;;;;;7.73;3.13;;;14.00;99.00;;;;;;5072955;28;20774;-71
2022/01/03 11:58:44;;;;;;;4.90;3.30;;;14.10;99.20;;;;;;5069210;28;20462;-71
2022/01/03 12:03:58;;;;;;;6.77;3.10;;;14.10;98.60;;;;;;5073807;28;20490;-70
2022/01/03 12:06:33;;;;;;;6.40;3.37;;;14.20;99.90;;;;;;5072756;28;20454;-69
2022/01/03 12:09:03;;;;;;;7.85;4.47;;;14.30;99.50;;;;;;5072839;28;20429;-71
2022/01/03 12:11:29;;;;;;;7.60;3.30;;;14.20;98.20;;;;;;5071738;28;20260;-71
2022/01/03 12:14:04;;;;;;;5.97;3.60;;;14.20;97.60;;;;;;5072602;28;20423;-68
2022/01/03 12:16:39;;;;;;;11.13;3.70;;;14.10;97.80;;;;;;5069541;28;20479;-69
2022/01/03 12:19:10;;;;;;;7.10;3.40;;;13.90;97.50;;;;;;5071163;28;20434;-76
2022/01/03 12:21:49;;;;;;;10.60;5.67;;;13.80;98.10;;;;;;5072990;28;20773;-67
2022/01/03 12:24:51;;;;;;;1041.80;613.00;;;13.70;98.20;;;;;;5071650;28;20441;-65
2022/01/03 12:27:16;;;;;;;19.57;8.80;;;13.70;98.70;;;;;;5069962;28;20428;-66
2022/01/03 12:29:57;;;;;;;8.10;3.63;;;13.70;99.10;;;;;;5072043;28;20415;-67
2022/01/03 12:32:25;;;;;;;4.40;3.53;;;13.70;98.70;;;;;;5072749;28;20179;-66
2022/01/03 12:35:15;;;;;;;8.17;3.60;;;13.70;98.50;;;;;;5072685;28;20430;-66
2022/01/03 12:37:50;;;;;;;5.60;3.03;;;13.60;98.50;;;;;;5070557;28;20427;-66
2022/01/03 12:40:21;;;;;;;5.53;3.80;;;13.60;99.00;;;;;;5072534;28;20422;-67
2022/01/03 12:45:33;;;;;;;7.63;3.37;;;13.50;98.90;;;;;;5069935;28;20551;-69
2022/01/03 12:48:11;;;;;;;4.63;3.40;;;13.40;99.10;;;;;;5072537;28;20195;-71
2022/01/03 12:50:52;;;;;;;12.90;4.30;;;13.40;99.60;;;;;;5070754;28;20480;-67
2022/01/03 12:53:26;;;;;;;5.53;3.07;;;13.40;99.00;;;;;;5069257;28;20438;-66
2022/01/03 12:56:02;;;;;;;7.63;3.50;;;13.30;99.30;;;;;;5068033;28;20820;-67
2022/01/03 12:58:27;;;;;;;7.90;3.70;;;13.20;99.00;;;;;;5068534;28;20990;-66
2022/01/03 13:01:05;;;;;;;6.00;3.60;;;13.30;99.30;;;;;;5064044;28;20441;-68
2022/01/03 13:03:32;;;;;;;8.73;2.63;;;13.30;99.20;;;;;;5069116;28;20678;-69
2022/01/03 13:06:19;;;;;;;6.10;2.40;;;13.30;99.90;;;;;;5072268;28;20457;-67
2022/01/03 13:08:48;;;;;;;3.97;3.30;;;13.20;99.40;;;;;;5061473;28;20905;-66
2022/01/03 13:11:22;;;;;;;7.07;2.80;;;13.20;99.50;;;;;;5066784;28;20605;-69
2022/01/03 13:13:50;;;;;;;6.73;3.73;;;13.20;99.90;;;;;;5073811;28;20440;-67
2022/01/03 13:16:21;;;;;;;5.70;2.97;;;13.10;99.90;;;;;;5072806;28;20430;-68
2022/01/03 13:18:56;;;;;;;11.33;4.00;;;13.00;99.90;;;;;;5072289;28;20421;-69